createdAt,value
2022-08-16T00:01:34.267Z,44.28
2022-08-16T00:04:00.125Z,44.94
2022-08-16T00:06:30.335Z,44.88
2022-08-16T00:08:59.443Z,44.84
2022-08-16T00:11:28.533Z,43.75
2022-08-16T00:13:57.722Z,43.75
2022-08-16T00:17:01.479Z,44.08
2022-08-16T00:19:06.533Z,44.08
2022-08-16T00:21:36.777Z,43.57
2022-08-16T00:24:06.708Z,43.55
2022-08-16T00:26:44.219Z,45.12
2022-08-16T00:29:08.300Z,43.53
2022-08-16T00:31:59.801Z,43.53
2022-08-16T00:34:18.250Z,44.40
2022-08-16T00:36:47.379Z,43.59
2022-08-16T00:39:18.015Z,43.59
2022-08-16T00:41:50.352Z,44.50
2022-08-16T00:44:22.758Z,44.50
2022-08-16T00:47:05.945Z,44.25
2022-08-16T00:49:29.702Z,42.71
2022-08-16T00:52:00.488Z,42.71
2022-08-16T00:54:32.958Z,42.93
2022-08-16T00:57:04.071Z,42.97
2022-08-16T00:59:35.846Z,44.53
2022-08-16T01:02:30.471Z,44.53
2022-08-16T01:04:41.180Z,43.43
2022-08-16T01:07:12.023Z,41.96
2022-08-16T01:09:43.193Z,41.96
2022-08-16T01:12:26.598Z,43.90
2022-08-16T01:14:47.192Z,44.37
2022-08-16T01:17:20.311Z,44.86
2022-08-16T01:19:57.034Z,44.86
2022-08-16T01:22:48.592Z,44.59
2022-08-16T01:25:33.656Z,42.58
2022-08-16T01:27:58.546Z,42.58
2022-08-16T01:30:31.865Z,43.11
2022-08-16T01:33:15.068Z,42.98
2022-08-16T01:35:43.961Z,42.51
2022-08-16T01:38:37.426Z,43.78
2022-08-16T01:54:13.310Z,69.02
2022-08-16T01:56:42.938Z,61.04
2022-08-16T01:59:15.727Z,65.03
2022-08-16T02:01:49.813Z,62.28
2022-08-16T02:04:48.410Z,65.78
2022-08-16T02:06:52.789Z,61.68
2022-08-16T02:09:25.693Z,65.33
2022-08-16T02:11:59.285Z,59.48
2022-08-16T02:14:31.860Z,59.48
2022-08-16T02:17:02.972Z,65.73
2022-08-16T02:19:58.840Z,70.10
2022-08-16T02:22:46.643Z,67.72
2022-08-16T02:24:45.835Z,67.72
2022-08-16T02:27:13.619Z,66.40
2022-08-16T02:29:44.603Z,66.68
2022-08-16T02:33:02.511Z,66.38
2022-08-16T02:34:48.388Z,72.38
2022-08-16T02:37:20.963Z,72.38
2022-08-16T02:39:54.114Z,70.66
2022-08-16T02:42:21.009Z,68.47
2022-08-16T02:44:50.191Z,68.47
2022-08-16T02:47:24.959Z,66.78
2022-08-16T02:50:52.121Z,70.67
2022-08-16T02:52:24.694Z,68.83
2022-08-16T02:54:55.705Z,64.35
2022-08-16T02:57:24.998Z,64.63
2022-08-16T02:59:54.695Z,64.63
2022-08-16T03:02:31.868Z,66.34
2022-08-16T03:04:54.941Z,57.47
2022-08-16T03:07:27.795Z,53.29
2022-08-16T03:09:55.887Z,53.29
2022-08-16T03:12:30.112Z,50.21
2022-08-16T03:14:57.781Z,50.72
2022-08-16T03:17:32.529Z,52.35
2022-08-16T03:19:59.686Z,53.70
2022-08-16T03:22:29.663Z,53.70
2022-08-16T03:25:01.711Z,56.72
2022-08-16T03:27:32.999Z,56.72
2022-08-16T03:30:16.179Z,55.99
2022-08-16T03:32:36.390Z,57.98
2022-08-16T03:35:06.672Z,57.98
2022-08-16T03:38:02.570Z,57.30
2022-08-16T03:40:31.417Z,57.98
2022-08-16T03:43:18.707Z,54.48
2022-08-16T03:45:14.791Z,54.48
2022-08-16T03:47:44.382Z,55.30
2022-08-16T03:50:26.246Z,53.45
2022-08-16T03:52:47.494Z,54.76
2022-08-16T03:55:17.719Z,52.68
2022-08-16T03:57:52.303Z,56.74
2022-08-16T04:00:36.209Z,55.32
2022-08-16T04:03:01.771Z,53.95
2022-08-16T04:05:30.996Z,53.55
2022-08-16T04:08:00.182Z,53.55
2022-08-16T04:10:35.728Z,54.38
2022-08-16T04:13:04.125Z,54.87
2022-08-16T04:15:33.727Z,52.52
2022-08-16T04:18:03.527Z,53.72
2022-08-16T04:20:36.737Z,52.45
2022-08-16T04:23:04.009Z,52.45
2022-08-16T04:25:35.515Z,54.01
2022-08-16T04:28:29.205Z,54.01
2022-08-16T04:30:36.790Z,55.07
2022-08-16T04:33:08.446Z,53.69
2022-08-16T04:35:38.559Z,53.24
2022-08-16T04:38:10.695Z,53.24
2022-08-16T04:40:38.818Z,52.61
2022-08-16T04:43:09.671Z,54.89
2022-08-16T04:45:40.074Z,54.63
2022-08-16T04:48:11.106Z,54.63
2022-08-16T04:50:43.668Z,56.27
2022-08-16T04:53:12.805Z,57.33
2022-08-16T04:55:44.904Z,57.53
2022-08-16T04:58:41.415Z,56.22
2022-08-16T05:00:44.733Z,55.45
2022-08-16T05:03:15.421Z,55.37
2022-08-16T05:05:55.467Z,55.32
2022-08-16T05:08:28.470Z,54.30
2022-08-16T05:10:46.704Z,53.35
2022-08-16T05:13:18.863Z,53.35
2022-08-16T05:15:49.785Z,53.74
2022-08-16T05:18:26.898Z,55.54
2022-08-16T05:21:01.482Z,55.54
2022-08-16T05:23:21.069Z,53.23
2022-08-16T05:25:50.424Z,56.34
2022-08-16T05:28:21.124Z,54.04
2022-08-16T05:30:52.666Z,54.16
2022-08-16T05:33:22.922Z,53.21
2022-08-16T05:35:55.058Z,53.95
2022-08-16T05:38:32.766Z,53.88
2022-08-16T05:41:02.960Z,53.88
2022-08-16T05:43:42.882Z,54.33
2022-08-16T05:46:03.415Z,54.76
2022-08-16T05:48:34.365Z,54.76
2022-08-16T05:51:04.178Z,53.56
2022-08-16T05:53:38.682Z,53.56
2022-08-16T05:56:06.172Z,53.43
2022-08-16T05:58:35.358Z,57.31
2022-08-16T06:01:04.967Z,53.38
2022-08-16T06:03:35.380Z,54.12
2022-08-16T06:06:04.684Z,54.21
2022-08-16T06:08:44.909Z,54.21
2022-08-16T06:11:11.033Z,53.50
2022-08-16T06:13:42.382Z,54.97
2022-08-16T06:16:09.257Z,53.93
2022-08-16T06:18:40.107Z,56.04
2022-08-16T06:21:09.293Z,55.05
2022-08-16T06:23:39.017Z,56.87
2022-08-16T06:26:08.788Z,53.01
2022-08-16T06:28:37.911Z,53.01
2022-08-16T06:31:12.288Z,52.71
2022-08-16T06:33:44.554Z,52.71
2022-08-16T06:36:14.741Z,53.74
2022-08-16T06:38:55.305Z,51.62
2022-08-16T06:41:16.733Z,54.60
2022-08-16T06:43:45.795Z,54.60
2022-08-16T06:46:31.953Z,54.31
2022-08-16T06:48:59.033Z,53.22
2022-08-16T06:51:46.486Z,52.20
2022-08-16T06:53:59.075Z,52.56
2022-08-16T06:56:28.398Z,55.23
2022-08-16T06:58:57.643Z,51.85
2022-08-16T07:01:43.222Z,51.77
2022-08-16T07:03:57.814Z,52.56
2022-08-16T07:06:27.458Z,54.35
2022-08-16T07:08:56.991Z,54.35
2022-08-16T07:11:27.053Z,56.40
2022-08-16T07:14:22.790Z,56.40
2022-08-16T07:16:29.136Z,54.28
2022-08-16T07:19:01.884Z,54.66
2022-08-16T07:21:46.691Z,54.38
2022-08-16T07:24:06.607Z,54.91
2022-08-16T07:26:35.848Z,54.91
2022-08-16T07:29:05.362Z,55.31
2022-08-16T07:31:37.630Z,55.31
2022-08-16T07:34:10.153Z,57.03
2022-08-16T07:36:37.766Z,58.59
2022-08-16T07:39:07.061Z,55.01
2022-08-16T07:41:36.606Z,55.01
2022-08-16T07:44:16.457Z,54.58
2022-08-16T07:46:38.362Z,54.58
2022-08-16T07:49:11.445Z,56.66
2022-08-16T07:51:38.991Z,54.50
2022-08-16T07:54:14.467Z,54.77
2022-08-16T07:56:42.023Z,54.68
2022-08-16T07:59:12.645Z,54.68
2022-08-16T08:01:43.157Z,55.06
2022-08-16T08:04:13.584Z,56.25
2022-08-16T08:06:43.826Z,54.64
2022-08-16T08:09:13.208Z,56.06
2022-08-16T08:12:00.791Z,56.26
2022-08-16T08:14:29.809Z,56.26
2022-08-16T08:16:46.002Z,55.82
2022-08-16T08:19:17.061Z,56.28
2022-08-16T08:21:59.042Z,56.78
2022-08-16T08:24:18.537Z,55.29
2022-08-16T08:26:50.261Z,55.29
2022-08-16T08:29:22.548Z,56.58
2022-08-16T08:31:51.395Z,58.67
2022-08-16T08:34:22.271Z,58.67
2022-08-16T08:36:54.448Z,55.98
2022-08-16T08:39:24.674Z,55.98
2022-08-16T08:41:55.082Z,56.10
2022-08-16T08:44:29.272Z,58.45
2022-08-16T08:47:00.420Z,58.45
2022-08-16T08:49:50.242Z,57.03
2022-08-16T08:51:59.181Z,58.43
2022-08-16T08:54:28.859Z,59.60
2022-08-16T08:56:58.332Z,59.57
2022-08-16T08:59:27.433Z,60.66
2022-08-16T09:01:58.568Z,60.66
2022-08-16T09:04:30.266Z,59.25
2022-08-16T09:07:01.392Z,59.81
2022-08-16T09:09:33.200Z,59.81
2022-08-16T09:12:06.069Z,56.87
2022-08-16T09:14:34.284Z,56.87
2022-08-16T09:17:11.719Z,58.26
2022-08-16T09:19:41.034Z,59.10
2022-08-16T09:22:19.594Z,56.51
2022-08-16T09:24:52.209Z,58.56
2022-08-16T09:27:10.905Z,59.69
2022-08-16T09:29:44.709Z,56.28
2022-08-16T09:32:11.016Z,57.64
2022-08-16T09:34:40.532Z,57.64
2022-08-16T09:37:18.084Z,57.30
2022-08-16T09:39:43.396Z,59.08
2022-08-16T09:42:15.315Z,58.51
2022-08-16T09:45:12.534Z,58.51
2022-08-16T09:47:16.485Z,60.56
2022-08-16T09:49:50.972Z,60.56
2022-08-16T09:52:18.433Z,59.77
2022-08-16T09:54:49.461Z,60.88
2022-08-16T09:57:19.689Z,62.60
2022-08-16T09:59:55.973Z,59.82
2022-08-16T10:02:25.983Z,58.99
2022-08-16T10:04:54.112Z,59.34
2022-08-16T10:07:22.953Z,59.34
2022-08-16T10:09:54.682Z,58.75
2022-08-16T10:12:42.536Z,60.52
2022-08-16T10:15:15.638Z,60.89
2022-08-16T10:18:00.185Z,58.87
2022-08-16T10:20:18.851Z,60.21
2022-08-16T10:22:48.313Z,60.21
2022-08-16T10:27:03.786Z,60.33
2022-08-16T10:27:53.243Z,57.69
2022-08-16T10:30:26.267Z,57.69
2022-08-16T10:32:51.877Z,60.95
2022-08-16T10:35:21.808Z,60.93
2022-08-16T10:37:53.163Z,61.81
2022-08-16T10:40:29.439Z,59.23
2022-08-16T10:42:53.883Z,60.06
2022-08-16T10:45:23.085Z,57.45
2022-08-16T10:48:02.685Z,57.45
2022-08-16T10:50:23.015Z,59.81
2022-08-16T10:52:56.837Z,60.58
2022-08-16T10:55:41.062Z,58.45
2022-08-16T10:57:57.224Z,58.45
2022-08-16T11:00:26.267Z,56.90
2022-08-16T11:03:37.598Z,56.90
2022-08-16T11:05:26.639Z,56.92
2022-08-16T11:07:56.348Z,56.93
2022-08-16T11:15:34.382Z,58.93
2022-08-16T11:20:41.619Z,59.52
2022-08-16T11:23:06.774Z,60.31
2022-08-16T11:28:09.230Z,58.48
2022-08-16T11:30:39.620Z,58.94
2022-08-16T11:33:10.837Z,58.97
2022-08-16T11:36:21.913Z,61.37
2022-08-16T11:38:47.038Z,61.73
2022-08-16T11:40:53.187Z,61.73
2022-08-16T11:43:28.357Z,58.88
2022-08-16T11:46:01.415Z,61.39
2022-08-16T11:48:34.750Z,61.39
2022-08-16T11:51:04.296Z,60.43
2022-08-16T11:53:36.077Z,60.43
2022-08-16T11:56:06.338Z,61.20
2022-08-16T11:58:35.469Z,61.20
2022-08-16T12:01:05.936Z,57.13
2022-08-16T12:03:36.844Z,57.13
2022-08-16T12:06:24.852Z,57.80
2022-08-16T12:08:45.445Z,57.48
2022-08-16T12:11:15.538Z,60.27
2022-08-16T12:13:46.843Z,60.27
2022-08-16T12:16:20.628Z,59.16
2022-08-16T12:18:50.471Z,60.27
2022-08-16T12:21:20.044Z,59.67
2022-08-16T12:23:49.267Z,58.53
2022-08-16T12:26:18.986Z,57.80
2022-08-16T12:28:54.793Z,58.61
2022-08-16T12:31:19.179Z,55.88
2022-08-16T12:33:48.643Z,55.88
2022-08-16T12:36:19.467Z,57.39
2022-08-16T12:38:49.442Z,54.11
2022-08-16T12:41:25.180Z,54.72
2022-08-16T12:43:51.904Z,54.72
2022-08-16T12:46:21.275Z,56.03
2022-08-16T12:49:00.402Z,53.96
2022-08-16T12:51:58.175Z,55.40
2022-08-16T12:54:06.151Z,55.40
2022-08-16T12:56:38.938Z,54.55
2022-08-16T12:59:13.206Z,56.07
2022-08-16T13:01:44.818Z,56.07
2022-08-16T13:04:20.277Z,55.75
2022-08-16T13:06:48.801Z,56.58
2022-08-16T13:09:22.052Z,56.58
2022-08-16T13:12:06.418Z,57.70
2022-08-16T13:14:41.450Z,58.54
2022-08-16T13:17:18.394Z,57.58
2022-08-16T13:20:06.745Z,57.32
2022-08-16T13:22:18.590Z,57.39
2022-08-16T13:24:46.216Z,57.39
2022-08-16T13:27:15.825Z,59.22
2022-08-16T13:29:46.349Z,56.18
2022-08-16T13:32:40.567Z,58.47
2022-08-16T13:34:49.672Z,58.47
2022-08-16T13:37:19.210Z,56.38
2022-08-16T13:39:49.430Z,58.39
2022-08-16T13:42:20.638Z,56.23
2022-08-16T13:44:58.074Z,56.23
2022-08-16T13:47:21.378Z,58.47
2022-08-16T13:49:52.768Z,55.65
2022-08-16T13:52:25.231Z,55.65
2022-08-16T13:54:56.085Z,57.45
2022-08-16T13:57:53.435Z,59.40
2022-08-16T13:59:57.545Z,59.24
2022-08-16T14:02:27.500Z,58.54
2022-08-16T14:04:59.550Z,58.54
2022-08-16T14:07:27.776Z,59.94
2022-08-16T14:09:58.601Z,58.65
2022-08-16T14:12:30.364Z,57.36
2022-08-16T14:15:00.053Z,57.36
2022-08-16T14:17:31.334Z,59.10
2022-08-16T14:20:01.745Z,58.60
2022-08-16T14:22:35.941Z,58.85
2022-08-16T14:25:10.111Z,59.71
2022-08-16T14:27:56.647Z,59.71
2022-08-16T14:30:26.394Z,57.54
2022-08-16T14:32:55.934Z,56.56
2022-08-16T14:35:36.352Z,55.83
2022-08-16T14:37:59.308Z,55.83
2022-08-16T14:40:29.943Z,56.64
2022-08-16T14:43:07.040Z,58.06
2022-08-16T14:45:31.443Z,57.86
2022-08-16T14:48:00.727Z,59.71
2022-08-16T14:50:29.906Z,59.71
2022-08-16T14:53:04.714Z,59.21
2022-08-16T14:55:36.667Z,57.59
2022-08-16T14:58:18.844Z,58.31
2022-08-16T15:00:38.576Z,58.31
2022-08-16T15:03:10.846Z,57.74
2022-08-16T15:05:42.678Z,57.49
2022-08-16T15:08:12.625Z,57.90
2022-08-16T15:10:44.810Z,57.90
2022-08-16T15:13:13.682Z,58.25
2022-08-16T15:15:45.246Z,56.64
2022-08-16T15:18:23.476Z,56.64
2022-08-16T15:20:47.354Z,54.73
2022-08-16T15:23:17.949Z,54.73
2022-08-16T15:26:02.833Z,56.30
2022-08-16T15:28:30.557Z,56.35
2022-08-16T15:30:59.591Z,57.17
2022-08-16T15:33:25.551Z,57.17
2022-08-16T15:35:57.954Z,55.42
2022-08-16T15:38:57.189Z,55.42
2022-08-16T15:40:58.867Z,57.29
2022-08-16T15:43:39.396Z,56.91
2022-08-16T15:46:35.705Z,56.91
2022-08-16T15:48:48.080Z,57.29
2022-08-16T15:51:18.814Z,58.42
2022-08-16T15:53:55.914Z,58.03
2022-08-16T15:56:18.618Z,58.08
2022-08-16T15:58:55.631Z,56.73
2022-08-16T16:01:20.337Z,57.06
2022-08-16T16:03:51.518Z,57.06
2022-08-16T16:06:28.067Z,56.72
2022-08-16T16:08:54.783Z,57.06
2022-08-16T16:11:24.923Z,58.50
2022-08-16T16:13:54.417Z,58.50
2022-08-16T16:16:23.519Z,58.50
2022-08-16T16:18:53.144Z,58.13
2022-08-16T16:21:22.344Z,58.15
2022-08-16T16:23:59.029Z,58.74
2022-08-16T16:26:24.847Z,58.74
2022-08-16T16:29:08.229Z,57.92
2022-08-16T16:31:27.861Z,58.52
2022-08-16T16:34:00.726Z,57.64
2022-08-16T16:36:32.482Z,57.00
2022-08-16T16:39:06.150Z,57.01
2022-08-16T16:41:38.873Z,55.56
2022-08-16T16:44:11.241Z,56.39
2022-08-16T16:46:43.777Z,56.39
2022-08-16T16:49:15.014Z,55.74
2022-08-16T16:51:50.125Z,55.00
2022-08-16T16:54:27.971Z,54.84
2022-08-16T16:56:50.422Z,56.25
2022-08-16T16:59:20.269Z,56.25
2022-08-16T17:01:59.448Z,58.05
2022-08-16T17:04:32.087Z,56.67
2022-08-16T17:06:57.412Z,56.08
2022-08-16T17:09:25.850Z,57.14
2022-08-16T17:11:56.014Z,56.23
2022-08-16T17:14:33.125Z,57.71
2022-08-16T17:16:56.746Z,57.71
2022-08-16T17:19:31.630Z,57.52
2022-08-16T17:21:58.410Z,57.52
2022-08-16T17:24:33.104Z,57.52
2022-08-16T17:27:00.676Z,57.25
2022-08-16T17:29:32.134Z,57.25
2022-08-16T17:32:33.238Z,56.14
2022-08-16T17:34:31.972Z,56.98
2022-08-16T17:37:05.214Z,55.54
2022-08-16T17:39:59.506Z,56.87
2022-08-16T17:42:13.601Z,56.68
2022-08-16T17:44:43.660Z,58.27
2022-08-16T17:47:13.105Z,57.29
2022-08-16T17:49:42.319Z,57.45
2022-08-16T17:52:13.261Z,57.45
2022-08-16T17:54:42.570Z,56.77
2022-08-16T17:57:12.776Z,57.50
2022-08-16T17:59:42.814Z,57.56
2022-08-16T18:02:42.409Z,58.23
2022-08-16T18:04:49.395Z,58.61
2022-08-16T18:07:14.142Z,57.82
2022-08-16T18:09:43.226Z,55.11
2022-08-16T18:12:54.484Z,55.11
2022-08-16T18:14:54.931Z,56.98
2022-08-16T18:17:22.874Z,55.79
2022-08-16T18:19:51.960Z,56.66
2022-08-16T18:22:30.574Z,56.36
2022-08-16T18:24:57.835Z,56.24
2022-08-16T18:27:28.723Z,56.24
2022-08-16T18:29:57.943Z,54.58
2022-08-16T18:32:28.826Z,55.16
2022-08-16T18:34:58.286Z,56.04
2022-08-16T18:37:27.638Z,54.76
2022-08-16T18:39:56.951Z,56.11
2022-08-16T18:42:27.401Z,56.21
2022-08-16T18:44:56.840Z,56.21
2022-08-16T18:47:26.023Z,56.19
2022-08-16T18:49:55.210Z,56.34
2022-08-16T18:52:25.990Z,56.88
2022-08-16T18:54:58.894Z,55.04
2022-08-16T18:57:26.451Z,56.73
2022-08-16T18:59:55.907Z,57.55
2022-08-16T19:02:56.882Z,57.55
2022-08-16T19:04:58.648Z,57.09
2022-08-16T19:07:30.821Z,57.86
2022-08-16T19:09:59.036Z,55.98
2022-08-16T19:12:47.067Z,55.98
2022-08-16T19:14:59.727Z,57.17
2022-08-16T19:17:29.210Z,57.83
2022-08-16T19:19:58.394Z,55.57
2022-08-16T19:22:59.532Z,54.47
2022-08-16T19:25:03.135Z,54.68
2022-08-16T19:27:33.062Z,56.75
2022-08-16T19:30:02.961Z,56.75
2022-08-16T19:32:32.064Z,56.64
2022-08-16T19:35:02.656Z,56.64
2022-08-16T19:37:31.861Z,54.62
2022-08-16T19:40:01.381Z,56.77
2022-08-16T19:42:30.911Z,57.24
2022-08-16T19:45:01.433Z,57.24
2022-08-16T19:47:32.098Z,57.00
2022-08-16T19:50:01.263Z,57.00
2022-08-16T19:52:32.786Z,57.35
2022-08-16T19:55:05.188Z,57.88
2022-08-16T19:57:34.401Z,57.84
2022-08-16T20:00:11.262Z,58.00
2022-08-16T20:02:36.803Z,58.38
2022-08-16T20:05:06.843Z,57.65
2022-08-16T20:07:35.986Z,57.67
2022-08-16T20:10:08.060Z,57.64
2022-08-16T20:12:37.775Z,57.64
2022-08-16T20:15:08.724Z,57.77
2022-08-16T20:17:37.908Z,57.48
2022-08-16T20:20:07.645Z,56.91
2022-08-16T20:22:54.616Z,57.43
2022-08-16T20:25:11.714Z,57.43
2022-08-16T20:27:42.493Z,56.73
2022-08-16T20:30:17.093Z,56.73
2022-08-16T20:32:47.909Z,56.83
2022-08-16T20:35:19.921Z,56.83
2022-08-16T20:37:49.100Z,56.94
2022-08-16T20:40:34.801Z,56.94
2022-08-16T20:43:02.878Z,55.70
2022-08-16T20:45:32.433Z,55.52
2022-08-16T20:48:01.820Z,56.41
2022-08-16T20:50:30.911Z,56.41
2022-08-16T20:53:00.253Z,56.58
2022-08-16T20:55:30.632Z,56.13
2022-08-16T20:57:59.783Z,56.03
2022-08-16T21:00:29.505Z,54.97
2022-08-16T21:02:58.685Z,54.55
2022-08-16T21:05:31.133Z,54.20
2022-08-16T21:08:00.473Z,56.57
2022-08-16T21:10:29.716Z,55.69
2022-08-16T21:13:03.103Z,55.66
2022-08-16T21:15:34.434Z,55.45
2022-08-16T21:18:03.856Z,55.85
2022-08-16T21:20:33.142Z,56.42
2022-08-16T21:23:05.670Z,55.77
2022-08-16T21:25:39.638Z,56.37
2022-08-16T21:28:41.911Z,55.50
2022-08-16T21:30:41.012Z,55.76
2022-08-16T21:33:15.896Z,55.65
2022-08-16T21:35:47.268Z,55.27
2022-08-16T21:38:28.728Z,55.85
2022-08-16T21:40:49.343Z,56.27
2022-08-16T21:43:23.522Z,55.68
2022-08-16T21:45:55.808Z,55.68
2022-08-16T21:48:33.608Z,55.74
2022-08-16T21:50:59.202Z,54.59
2022-08-16T21:53:29.141Z,54.59
2022-08-16T21:56:00.198Z,55.36
2022-08-16T21:58:30.324Z,54.62
2022-08-16T22:00:59.913Z,54.62
2022-08-16T22:03:31.483Z,55.38
2022-08-16T22:06:12.343Z,55.16
2022-08-16T22:08:32.729Z,54.78
2022-08-16T22:11:06.288Z,55.40
2022-08-16T22:13:33.364Z,55.40
2022-08-16T22:16:02.607Z,55.04
2022-08-16T22:18:31.873Z,55.04
2022-08-16T22:21:01.176Z,54.78
2022-08-16T22:23:32.053Z,54.59
2022-08-16T22:26:01.559Z,54.38
2022-08-16T22:28:30.824Z,54.64
2022-08-16T22:31:00.025Z,54.64
2022-08-16T22:33:30.352Z,55.45
2022-08-16T22:36:02.106Z,55.45
2022-08-16T22:38:55.039Z,55.10
2022-08-16T22:41:05.311Z,54.46
2022-08-16T22:43:34.984Z,54.20
2022-08-16T22:46:05.057Z,54.23
2022-08-16T22:48:39.206Z,54.17
2022-08-16T22:51:05.889Z,54.20
2022-08-16T22:53:34.984Z,53.97
2022-08-16T22:56:06.119Z,54.42
2022-08-16T22:58:36.720Z,54.98
2022-08-16T23:01:08.162Z,54.98
2022-08-16T23:03:37.853Z,55.03
2022-08-16T23:06:08.219Z,55.36
2022-08-16T23:08:40.969Z,55.17
2022-08-16T23:11:17.609Z,55.22
2022-08-16T23:13:52.990Z,55.22
2022-08-16T23:16:20.702Z,55.46
2022-08-16T23:18:50.927Z,55.57
2022-08-16T23:21:20.167Z,55.57
2022-08-16T23:23:51.582Z,55.08
2022-08-16T23:26:46.987Z,55.08
2022-08-16T23:28:54.376Z,54.10
2022-08-16T23:31:23.990Z,54.10
2022-08-16T23:33:53.303Z,54.12
2022-08-16T23:36:22.417Z,55.18
2022-08-16T23:38:51.618Z,54.31
2022-08-16T23:41:20.809Z,53.26
2022-08-16T23:43:49.978Z,53.34
2022-08-16T23:46:20.706Z,54.24
2022-08-16T23:49:58.240Z,51.98
2022-08-16T23:51:21.196Z,53.16
2022-08-16T23:53:51.453Z,54.25
2022-08-16T23:56:22.186Z,53.49
2022-08-16T23:59:02.336Z,53.62
